createdAt,value
2022-09-26T00:01:18.942Z,95.77
2022-09-26T00:03:49.842Z,95.83
2022-09-26T00:06:18.566Z,96.76
2022-09-26T00:08:47.386Z,97.42
2022-09-26T00:11:18.307Z,96.82
2022-09-26T00:13:46.063Z,97.06
2022-09-26T00:16:15.291Z,96.19
2022-09-26T00:18:42.902Z,96.93
2022-09-26T00:21:13.482Z,97.42
2022-09-26T00:23:42.230Z,96.92
2022-09-26T00:26:10.849Z,97.43
2022-09-26T00:28:38.645Z,98.68
2022-09-26T00:31:06.594Z,98.76
2022-09-26T00:33:34.692Z,98.46
2022-09-26T00:36:02.703Z,97.45
2022-09-26T00:38:31.672Z,97.67
2022-09-26T00:40:59.406Z,97.80
2022-09-26T00:43:31.247Z,98.64
2022-09-26T00:46:03.292Z,98.45
2022-09-26T00:48:32.647Z,97.97
2022-09-26T00:51:00.847Z,97.58
2022-09-26T00:53:32.647Z,97.42
2022-09-26T00:56:06.052Z,98.38
2022-09-26T00:58:36.942Z,98.54
2022-09-26T01:01:04.558Z,99.05
2022-09-26T01:03:32.901Z,99.10
2022-09-26T01:06:01.468Z,98.94
2022-09-26T01:08:33.300Z,99.04
2022-09-26T01:11:00.958Z,98.69
2022-09-26T01:13:28.534Z,98.97
2022-09-26T01:15:58.255Z,99.17
2022-09-26T01:18:27.501Z,99.58
2022-09-26T01:20:59.681Z,99.74
2022-09-26T01:24:00.554Z,99.93
2022-09-26T01:26:46.477Z,99.46
2022-09-26T01:30:02.226Z,100.00
2022-09-26T01:32:50.312Z,99.88
2022-09-26T01:35:29.217Z,99.58
2022-09-26T01:38:03.116Z,98.90
2022-09-26T01:40:34.281Z,99.43
2022-09-26T01:43:06.802Z,99.12
2022-09-26T01:45:40.755Z,99.98
2022-09-26T01:48:16.770Z,99.05
2022-09-26T01:50:46.928Z,99.39
2022-09-26T01:53:17.118Z,99.42
2022-09-26T01:55:49.865Z,99.88
2022-09-26T01:58:22.161Z,99.41
2022-09-26T02:00:50.905Z,99.58
2022-09-26T02:03:28.956Z,99.19
2022-09-26T02:05:59.930Z,99.51
2022-09-26T02:08:30.772Z,98.88
2022-09-26T02:11:02.352Z,99.89
2022-09-26T02:13:32.452Z,99.79
2022-09-26T02:16:05.334Z,99.27
2022-09-26T02:18:36.667Z,99.25
2022-09-26T02:21:11.985Z,99.35
2022-09-26T02:23:39.633Z,99.42
2022-09-26T02:26:07.637Z,99.07
2022-09-26T02:28:35.204Z,99.57
2022-09-26T02:31:04.070Z,99.18
2022-09-26T02:33:31.878Z,98.59
2022-09-26T02:36:02.480Z,98.74
2022-09-26T02:38:32.560Z,98.71
2022-09-26T02:41:18.965Z,98.66
2022-09-26T02:43:58.401Z,98.32
2022-09-26T02:46:39.617Z,98.32
2022-09-26T02:49:17.602Z,97.15
2022-09-26T02:51:59.698Z,97.58
2022-09-26T02:54:32.235Z,97.31
2022-09-26T02:57:12.310Z,96.66
2022-09-26T02:59:49.110Z,96.16
2022-09-26T03:02:20.830Z,96.22
2022-09-26T03:05:11.763Z,96.10
2022-09-26T03:07:44.519Z,96.08
2022-09-26T03:10:13.541Z,96.77
2022-09-26T03:12:44.385Z,97.23
2022-09-26T03:15:13.459Z,96.09
2022-09-26T03:17:43.904Z,96.90
2022-09-26T03:20:17.676Z,96.46
2022-09-26T03:22:46.804Z,95.91
2022-09-26T03:25:17.110Z,95.90
2022-09-26T03:27:51.565Z,95.95
2022-09-26T03:30:21.046Z,95.96
2022-09-26T03:33:04.799Z,96.31
2022-09-26T03:35:32.300Z,96.46
2022-09-26T03:38:01.074Z,96.56
2022-09-26T03:40:31.277Z,97.01
2022-09-26T03:43:24.221Z,97.03
2022-09-26T03:45:53.239Z,96.78
2022-09-26T03:48:24.922Z,96.55
2022-09-26T03:50:52.370Z,96.36
2022-09-26T03:53:21.088Z,96.08
2022-09-26T03:55:48.526Z,96.83
2022-09-26T03:58:15.972Z,97.25
2022-09-26T04:00:43.512Z,96.00
2022-09-26T04:03:11.024Z,96.05
2022-09-26T04:05:41.088Z,96.39
2022-09-26T04:08:09.206Z,96.54
2022-09-26T04:10:39.943Z,96.93
2022-09-26T04:13:08.439Z,96.95
2022-09-26T04:15:37.638Z,96.94
2022-09-26T04:18:12.936Z,96.59
2022-09-26T04:20:40.325Z,96.90
2022-09-26T04:23:07.836Z,96.59
2022-09-26T04:25:37.900Z,96.81
2022-09-26T04:28:08.225Z,96.67
2022-09-26T04:30:35.647Z,96.80
2022-09-26T04:33:03.172Z,97.35
2022-09-26T04:35:36.592Z,97.38
2022-09-26T04:38:04.700Z,97.45
2022-09-26T04:40:33.884Z,96.80
2022-09-26T04:43:10.986Z,97.13
2022-09-26T04:45:41.427Z,96.94
2022-09-26T04:48:13.864Z,96.87
2022-09-26T04:50:44.114Z,96.75
2022-09-26T04:53:12.233Z,96.81
2022-09-26T04:55:46.830Z,97.77
2022-09-26T04:58:17.273Z,97.90
2022-09-26T05:00:47.383Z,98.50
2022-09-26T05:03:18.288Z,97.76
2022-09-26T05:05:47.282Z,98.17
2022-09-26T05:08:15.364Z,98.01
2022-09-26T05:10:43.059Z,97.99
2022-09-26T05:13:10.784Z,97.46
2022-09-26T05:15:41.544Z,96.75
2022-09-26T05:18:11.331Z,97.66
2022-09-26T05:20:39.335Z,97.52
2022-09-26T05:23:08.491Z,97.54
2022-09-26T05:25:58.012Z,97.36
2022-09-26T05:28:25.774Z,97.49
2022-09-26T05:30:55.597Z,97.76
2022-09-26T05:33:23.080Z,97.40
2022-09-26T05:35:54.062Z,97.48
2022-09-26T05:38:22.005Z,96.87
2022-09-26T05:40:56.419Z,97.19
2022-09-26T05:43:25.090Z,97.30
2022-09-26T05:45:59.029Z,97.38
2022-09-26T05:48:30.122Z,97.60
2022-09-26T05:50:57.649Z,97.68
2022-09-26T05:53:25.779Z,97.04
2022-09-26T05:55:54.058Z,96.82
2022-09-26T05:58:32.155Z,96.75
2022-09-26T06:01:19.896Z,96.57
2022-09-26T06:03:54.675Z,96.74
2022-09-26T06:06:27.460Z,96.15
2022-09-26T06:09:03.177Z,95.79
2022-09-26T06:11:49.100Z,96.68
2022-09-26T06:14:17.306Z,95.41
2022-09-26T06:16:46.142Z,95.36
2022-09-26T06:19:14.653Z,95.39
2022-09-26T06:21:44.120Z,94.80
2022-09-26T06:24:15.090Z,95.70
2022-09-26T06:26:43.462Z,95.60
2022-09-26T06:29:11.560Z,95.34
2022-09-26T06:31:41.697Z,94.78
2022-09-26T06:34:13.730Z,94.61
2022-09-26T06:37:04.470Z,94.22
2022-09-26T06:39:35.530Z,94.83
2022-09-26T06:42:03.186Z,93.59
2022-09-26T06:44:50.875Z,94.71
2022-09-26T06:47:24.262Z,93.56
2022-09-26T06:50:06.249Z,94.30
2022-09-26T06:52:37.415Z,94.79
2022-09-26T06:55:07.638Z,93.85
2022-09-26T06:57:37.933Z,94.30
2022-09-26T07:00:06.813Z,92.45
2022-09-26T07:03:00.186Z,92.87
2022-09-26T07:05:48.648Z,92.52
2022-09-26T07:08:16.854Z,92.83
2022-09-26T07:10:44.458Z,92.28
2022-09-26T07:13:25.601Z,92.10
2022-09-26T07:15:53.914Z,92.88
2022-09-26T07:18:28.165Z,92.09
2022-09-26T07:21:06.491Z,91.69
2022-09-26T07:23:48.624Z,91.03
2022-09-26T07:26:18.389Z,90.61
2022-09-26T07:28:47.751Z,89.71
2022-09-26T07:31:19.504Z,89.01
2022-09-26T07:34:14.623Z,88.91
2022-09-26T07:36:48.179Z,87.86
2022-09-26T07:39:16.306Z,87.05
2022-09-26T07:41:46.091Z,86.82
2022-09-26T07:47:19.531Z,82.63
2022-09-26T07:50:05.242Z,79.56
2022-09-26T07:52:44.544Z,78.70
2022-09-26T07:55:27.031Z,77.31
2022-09-26T07:58:13.033Z,76.65
2022-09-26T08:00:59.094Z,75.78
2022-09-26T08:03:49.567Z,75.65
2022-09-26T08:06:25.485Z,74.67
2022-09-26T08:08:55.484Z,77.52
2022-09-26T08:11:43.204Z,76.74
2022-09-26T08:14:29.507Z,76.32
2022-09-26T08:17:15.779Z,77.69
2022-09-26T08:19:43.676Z,77.94
2022-09-26T08:22:14.400Z,78.52
2022-09-26T08:24:45.048Z,79.06
2022-09-26T08:27:33.416Z,79.09
2022-09-26T08:30:01.272Z,77.07
2022-09-26T08:32:32.102Z,75.34
2022-09-26T08:34:59.985Z,76.21
2022-09-26T08:37:50.242Z,74.94
2022-09-26T08:40:45.813Z,75.10
2022-09-26T08:43:41.885Z,75.30
2022-09-26T08:46:44.517Z,74.73
2022-09-26T08:49:43.925Z,73.03
2022-09-26T08:52:25.758Z,74.20
2022-09-26T08:54:54.525Z,71.01
2022-09-26T08:57:31.527Z,73.10
2022-09-26T08:59:58.993Z,74.53
2022-09-26T09:02:32.927Z,76.01
2022-09-26T09:05:09.806Z,72.78
2022-09-26T09:07:42.003Z,73.31
2022-09-26T09:10:16.418Z,72.29
2022-09-26T09:13:02.532Z,72.94
2022-09-26T09:15:53.938Z,74.54
2022-09-26T09:18:31.643Z,74.96
2022-09-26T09:21:24.304Z,77.25
2022-09-26T09:24:14.582Z,77.77
2022-09-26T09:29:49.829Z,77.69
2022-09-26T09:32:44.579Z,77.23
2022-09-26T09:35:39.296Z,77.31
2022-09-26T09:38:29.517Z,80.32
2022-09-26T09:41:14.846Z,81.93
2022-09-26T09:43:45.057Z,82.14
2022-09-26T09:46:18.117Z,82.00
2022-09-26T09:48:47.938Z,84.51
2022-09-26T09:51:24.164Z,83.84
2022-09-26T09:54:07.006Z,84.21
2022-09-26T09:56:45.417Z,83.79
2022-09-26T09:59:32.088Z,83.71
2022-09-26T10:02:19.254Z,85.02
2022-09-26T10:04:49.098Z,84.43
2022-09-26T10:07:17.361Z,85.90
2022-09-26T10:10:00.236Z,85.18
2022-09-26T10:13:00.165Z,87.07
2022-09-26T10:16:00.835Z,89.45
2022-09-26T10:19:03.366Z,88.34
2022-09-26T10:21:33.738Z,91.17
2022-09-26T10:24:03.906Z,93.32
2022-09-26T10:26:51.681Z,91.88
2022-09-26T10:29:34.923Z,93.42
2022-09-26T10:32:03.478Z,91.25
2022-09-26T10:34:34.605Z,90.30
2022-09-26T10:37:21.485Z,92.15
2022-09-26T10:40:10.341Z,93.94
2022-09-26T10:42:38.301Z,94.63
2022-09-26T10:45:12.118Z,94.49
2022-09-26T10:47:59.265Z,92.83
2022-09-26T10:51:01.767Z,94.50
2022-09-26T10:53:42.527Z,93.15
2022-09-26T10:56:12.858Z,94.52
2022-09-26T10:58:42.182Z,94.35
2022-09-26T11:01:19.007Z,93.09
2022-09-26T11:03:47.916Z,94.44
2022-09-26T11:06:28.673Z,95.63
2022-09-26T11:09:04.700Z,97.83
2022-09-26T11:11:52.514Z,97.69
2022-09-26T11:14:28.995Z,98.75
2022-09-26T11:17:08.919Z,97.75
2022-09-26T11:19:42.506Z,98.66
2022-09-26T11:22:15.691Z,98.88
2022-09-26T11:24:47.762Z,97.66
2022-09-26T11:27:24.052Z,98.90
2022-09-26T11:29:55.639Z,98.53
2022-09-26T11:32:30.141Z,97.48
2022-09-26T11:35:02.170Z,99.57
2022-09-26T11:38:09.110Z,99.30
2022-09-26T11:40:45.461Z,99.27
2022-09-26T11:43:25.361Z,98.89
2022-09-26T11:46:15.125Z,97.92
2022-09-26T11:49:30.827Z,97.66
2022-09-26T11:52:29.480Z,98.04
2022-09-26T11:55:11.155Z,97.28
2022-09-26T11:57:42.314Z,95.70
2022-09-26T12:00:15.930Z,96.23
2022-09-26T12:03:06.536Z,95.86
2022-09-26T12:05:42.413Z,95.74
2022-09-26T12:08:17.433Z,97.25
2022-09-26T12:10:56.557Z,97.61
2022-09-26T12:13:34.104Z,97.21
2022-09-26T12:16:12.555Z,97.01
2022-09-26T12:18:46.923Z,97.19
2022-09-26T12:21:22.921Z,96.91
2022-09-26T12:23:53.077Z,97.93
2022-09-26T12:26:26.897Z,98.12
2022-09-26T12:29:15.929Z,97.75
2022-09-26T12:31:54.904Z,98.12
2022-09-26T12:34:32.601Z,96.86
2022-09-26T12:37:14.049Z,97.92
2022-09-26T12:39:53.817Z,97.80
2022-09-26T12:42:38.679Z,97.83
2022-09-26T12:45:24.293Z,99.31
2022-09-26T12:48:05.564Z,98.96
2022-09-26T12:50:41.202Z,100.00
2022-09-26T12:53:28.172Z,100.00
2022-09-26T12:56:03.193Z,99.41
2022-09-26T12:58:43.436Z,99.58
2022-09-26T13:01:23.641Z,99.49
2022-09-26T13:04:04.246Z,99.01
2022-09-26T13:07:18.192Z,99.27
2022-09-26T13:10:12.855Z,100.00
2022-09-26T13:12:53.169Z,100.00
2022-09-26T13:15:26.989Z,100.00
2022-09-26T13:18:00.800Z,100.00
2022-09-26T13:20:30.620Z,100.00
2022-09-26T13:23:00.199Z,99.91
2022-09-26T13:25:30.678Z,99.90
2022-09-26T13:28:04.909Z,98.58
2022-09-26T13:30:36.233Z,98.46
2022-09-26T13:33:08.949Z,97.58
2022-09-26T13:35:42.121Z,96.10
2022-09-26T13:38:19.645Z,94.87
2022-09-26T13:40:53.645Z,96.13
2022-09-26T13:43:28.953Z,93.89
2022-09-26T13:46:03.741Z,93.18
2022-09-26T13:48:40.377Z,92.52
2022-09-26T13:51:19.054Z,91.20
2022-09-26T13:53:54.128Z,91.44
2022-09-26T13:56:43.998Z,89.66
2022-09-26T13:59:27.237Z,89.47
2022-09-26T14:02:28.353Z,88.60
2022-09-26T14:05:25.625Z,87.90
2022-09-26T14:08:11.243Z,87.42
2022-09-26T14:10:40.181Z,84.69
2022-09-26T14:13:20.050Z,85.55
2022-09-26T14:16:02.226Z,85.96
2022-09-26T14:18:53.842Z,86.66
2022-09-26T14:21:37.462Z,86.46
2022-09-26T14:24:28.542Z,84.31
2022-09-26T14:27:04.876Z,86.43
2022-09-26T14:29:37.593Z,86.00
2022-09-26T14:32:07.906Z,87.40
2022-09-26T14:34:41.716Z,88.60
2022-09-26T14:37:26.319Z,90.92
2022-09-26T14:40:02.786Z,91.98
2022-09-26T14:42:35.029Z,91.85
2022-09-26T14:45:04.788Z,92.54
2022-09-26T14:47:40.191Z,93.92
2022-09-26T14:50:17.268Z,95.89
2022-09-26T14:52:51.257Z,95.92
2022-09-26T14:55:19.241Z,96.23
2022-09-26T14:57:47.694Z,95.93
2022-09-26T15:00:35.199Z,95.86
2022-09-26T15:03:05.578Z,97.48
2022-09-26T15:05:34.522Z,97.74
2022-09-26T15:08:02.321Z,98.49
2022-09-26T15:10:39.954Z,97.90
2022-09-26T15:13:17.823Z,98.86
2022-09-26T15:15:51.628Z,99.63
2022-09-26T15:18:29.666Z,100.00
2022-09-26T15:21:04.403Z,99.43
2022-09-26T15:23:34.113Z,98.40
2022-09-26T15:26:03.368Z,98.83
2022-09-26T15:28:34.638Z,100.00
2022-09-26T15:31:22.526Z,97.83
2022-09-26T15:33:56.029Z,98.71
2022-09-26T15:36:28.746Z,97.67
2022-09-26T15:38:56.437Z,98.55
2022-09-26T15:41:41.505Z,98.39
2022-09-26T15:44:09.573Z,98.80
2022-09-26T15:46:37.020Z,100.00
2022-09-26T15:49:13.853Z,99.55
2022-09-26T15:51:43.920Z,99.48
2022-09-26T15:54:15.161Z,100.00
2022-09-26T15:56:46.146Z,99.66
2022-09-26T15:59:18.314Z,99.71
2022-09-26T16:01:48.801Z,99.46
2022-09-26T16:04:20.298Z,97.90
2022-09-26T16:06:58.268Z,98.57
2022-09-26T16:09:32.170Z,98.58
2022-09-26T16:12:01.026Z,98.41
2022-09-26T16:14:33.264Z,99.75
2022-09-26T16:17:04.681Z,98.87
2022-09-26T16:19:35.689Z,99.02
2022-09-26T16:22:40.023Z,98.25
2022-09-26T16:25:31.962Z,99.62
2022-09-26T16:28:32.029Z,99.76
2022-09-26T16:31:10.335Z,99.69
2022-09-26T16:33:40.319Z,99.68
2022-09-26T16:36:16.998Z,99.95
2022-09-26T16:38:51.042Z,99.95
2022-09-26T16:41:48.822Z,100.00
2022-09-26T16:44:26.206Z,100.00
2022-09-26T16:46:56.170Z,100.00
2022-09-26T16:49:48.208Z,100.00
2022-09-26T16:52:29.409Z,100.00
2022-09-26T16:54:58.653Z,100.00
2022-09-26T16:57:29.956Z,100.00
2022-09-26T17:00:21.416Z,100.00
2022-09-26T17:02:47.928Z,100.00
2022-09-26T17:05:18.258Z,100.00
2022-09-26T17:07:45.906Z,100.00
2022-09-26T17:10:13.502Z,100.00
2022-09-26T17:12:42.389Z,100.00
2022-09-26T17:15:14.239Z,100.00
2022-09-26T17:17:41.755Z,100.00
2022-09-26T17:20:12.701Z,100.00
2022-09-26T17:22:40.037Z,100.00
2022-09-26T17:25:12.351Z,100.00
2022-09-26T17:27:42.101Z,100.00
2022-09-26T17:30:16.172Z,100.00
2022-09-26T17:32:49.438Z,100.00
2022-09-26T17:35:22.799Z,100.00
2022-09-26T17:37:50.309Z,100.00
2022-09-26T17:40:22.710Z,100.00
2022-09-26T17:42:52.347Z,100.00
2022-09-26T17:45:19.794Z,100.00
2022-09-26T17:47:47.178Z,100.00
2022-09-26T17:50:19.798Z,100.00
2022-09-26T17:52:47.691Z,100.00
2022-09-26T17:55:15.057Z,100.00
2022-09-26T17:57:42.570Z,100.00
2022-09-26T18:00:17.815Z,100.00
2022-09-26T18:02:46.277Z,100.00
2022-09-26T18:05:18.752Z,100.00
2022-09-26T18:07:47.429Z,100.00
2022-09-26T18:10:20.148Z,100.00
2022-09-26T18:12:47.847Z,100.00
2022-09-26T18:15:20.795Z,100.00
2022-09-26T18:17:49.579Z,100.00
2022-09-26T18:20:18.201Z,100.00
2022-09-26T18:22:46.091Z,100.00
2022-09-26T18:25:18.833Z,100.00
2022-09-26T18:27:47.356Z,100.00
2022-09-26T18:30:17.465Z,100.00
2022-09-26T18:32:47.223Z,100.00
2022-09-26T18:35:16.088Z,100.00
2022-09-26T18:37:43.526Z,100.00
2022-09-26T18:40:14.329Z,100.00
2022-09-26T18:42:44.273Z,100.00
2022-09-26T18:45:14.039Z,100.00
2022-09-26T18:47:44.559Z,100.00
2022-09-26T18:50:20.982Z,100.00
2022-09-26T18:52:48.448Z,100.00
2022-09-26T18:55:37.077Z,100.00
2022-09-26T18:58:21.829Z,100.00
2022-09-26T19:00:49.493Z,100.00
2022-09-26T19:03:18.366Z,100.00
2022-09-26T19:05:45.698Z,100.00
2022-09-26T19:08:27.797Z,100.00
2022-09-26T19:10:55.857Z,100.00
2022-09-26T19:13:27.432Z,100.00
2022-09-26T19:15:55.336Z,100.00
2022-09-26T19:18:24.062Z,100.00
2022-09-26T19:20:51.432Z,100.00
2022-09-26T19:23:18.798Z,100.00
2022-09-26T19:25:46.145Z,100.00
2022-09-26T19:28:14.235Z,100.00
2022-09-26T19:30:41.844Z,100.00
2022-09-26T19:33:11.102Z,100.00
2022-09-26T19:35:40.103Z,100.00
2022-09-26T19:38:16.469Z,100.00
2022-09-26T19:40:48.359Z,100.00
2022-09-26T19:43:16.709Z,100.00
2022-09-26T19:45:44.670Z,100.00
2022-09-26T19:48:16.546Z,100.00
2022-09-26T19:50:47.072Z,100.00
2022-09-26T19:53:15.965Z,100.00
2022-09-26T19:55:43.754Z,100.00
2022-09-26T19:58:16.233Z,100.00
2022-09-26T20:00:44.747Z,100.00
2022-09-26T20:03:17.807Z,100.00
2022-09-26T20:05:47.248Z,100.00
2022-09-26T20:08:17.071Z,100.00
2022-09-26T20:10:44.857Z,100.00
2022-09-26T20:13:12.248Z,100.00
2022-09-26T20:15:39.860Z,100.00
2022-09-26T20:18:07.994Z,100.00
2022-09-26T20:20:38.014Z,100.00
2022-09-26T20:23:10.749Z,100.00
2022-09-26T20:25:41.153Z,100.00
2022-09-26T20:28:10.458Z,100.00
2022-09-26T20:30:52.684Z,100.00
2022-09-26T20:33:22.178Z,100.00
2022-09-26T20:35:53.472Z,100.00
2022-09-26T20:38:26.741Z,100.00
2022-09-26T20:41:00.384Z,100.00
2022-09-26T20:43:31.580Z,100.00
2022-09-26T20:45:59.003Z,100.00
2022-09-26T20:48:27.844Z,100.00
2022-09-26T20:50:55.518Z,100.00
2022-09-26T20:53:25.665Z,100.00
2022-09-26T20:55:54.969Z,100.00
2022-09-26T20:58:22.610Z,100.00
2022-09-26T21:00:50.383Z,100.00
2022-09-26T21:03:19.840Z,100.00
2022-09-26T21:05:47.346Z,100.00
2022-09-26T21:08:23.861Z,100.00
2022-09-26T21:10:52.726Z,100.00
2022-09-26T21:13:20.078Z,100.00
2022-09-26T21:15:47.459Z,100.00
2022-09-26T21:18:23.211Z,100.00
2022-09-26T21:20:51.046Z,100.00
2022-09-26T21:23:41.789Z,100.00
2022-09-26T21:26:17.211Z,100.00
2022-09-26T21:28:44.553Z,100.00
2022-09-26T21:31:20.646Z,100.00
2022-09-26T21:33:48.177Z,100.00
2022-09-26T21:36:15.649Z,100.00
2022-09-26T21:38:43.691Z,100.00
2022-09-26T21:41:13.367Z,100.00
2022-09-26T21:43:43.897Z,100.00
2022-09-26T21:46:11.416Z,100.00
2022-09-26T21:48:38.993Z,100.00
2022-09-26T21:51:08.060Z,100.00
2022-09-26T21:53:38.582Z,100.00
2022-09-26T21:56:09.468Z,100.00
2022-09-26T21:58:39.347Z,100.00
2022-09-26T22:01:06.719Z,100.00
2022-09-26T22:03:34.504Z,100.00
2022-09-26T22:06:07.160Z,100.00
2022-09-26T22:08:34.932Z,100.00
2022-09-26T22:11:03.078Z,100.00
2022-09-26T22:13:30.606Z,100.00
2022-09-26T22:16:06.212Z,100.00
2022-09-26T22:18:34.038Z,100.00
2022-09-26T22:21:03.737Z,100.00
2022-09-26T22:23:31.697Z,100.00
2022-09-26T22:25:59.073Z,100.00
2022-09-26T22:28:26.637Z,100.00
2022-09-26T22:30:54.732Z,100.00
2022-09-26T22:33:23.695Z,100.00
2022-09-26T22:35:51.517Z,100.00
2022-09-26T22:38:19.067Z,100.00
2022-09-26T22:40:46.702Z,100.00
2022-09-26T22:43:14.078Z,100.00
2022-09-26T22:45:43.458Z,100.00
2022-09-26T22:48:10.840Z,100.00
2022-09-26T22:50:39.535Z,100.00
2022-09-26T22:53:10.036Z,100.00
2022-09-26T22:55:37.453Z,100.00
2022-09-26T22:58:04.848Z,100.00
2022-09-26T23:00:32.211Z,100.00
2022-09-26T23:02:59.701Z,100.00
2022-09-26T23:05:27.003Z,100.00
2022-09-26T23:07:55.725Z,100.00
2022-09-26T23:10:23.089Z,100.00
2022-09-26T23:12:50.757Z,100.00
2022-09-26T23:15:19.241Z,100.00
2022-09-26T23:17:47.395Z,100.00
2022-09-26T23:20:15.004Z,100.00
2022-09-26T23:22:42.366Z,100.00
2022-09-26T23:25:11.710Z,100.00
2022-09-26T23:27:39.070Z,100.00
2022-09-26T23:30:07.838Z,100.00
2022-09-26T23:32:35.222Z,100.00
2022-09-26T23:35:02.658Z,100.00
2022-09-26T23:37:31.405Z,100.00
2022-09-26T23:39:58.782Z,100.00
2022-09-26T23:42:27.429Z,100.00
2022-09-26T23:44:54.856Z,100.00
2022-09-26T23:47:22.169Z,100.00
2022-09-26T23:49:49.783Z,100.00
2022-09-26T23:52:17.147Z,100.00
2022-09-26T23:54:44.541Z,100.00
2022-09-26T23:57:11.930Z,100.00
2022-09-26T23:59:40.605Z,100.00
